Terminal Aerodrome Forecast
Issued by NWS Corpus Christi, TX

Home | Current Version | Previous Version | Text Only | Print | Product List | Glossary On
Versions: 1 2 3 4 5 6 7 8 9 10 11 12 13 14 15
000
FTUS44 KCRP 032323
TAFVCT
TAF
KVCT 032323Z 0400/0424 14012KT P6SM SCT120
     FM040300 13004KT P6SM FEW020
     FM040900 VRB04KT 6SM BR VCSH SCT018
      TEMPO 0410/0413 5SM BR BKN018
     FM041300 12005KT P6SM VCSH SCT018 SCT030
     FM041800 14012KT P6SM SCT035=

USA.gov is the U.S. government's official web portal to all federal, state and local government web resources and services.